sensor_id;sensor_type;location;lat;lon;timestamp;P1;durP1;ratioP1;P2;durP2;ratioP2
15806;SDS011;8005;51.368;6.140;2023-01-26T00:00:48;132.18;;;42.80;;
15806;SDS011;8005;51.368;6.140;2023-01-26T00:02:20;163.13;;;53.30;;
15806;SDS011;8005;51.368;6.140;2023-01-26T00:03:52;161.55;;;53.55;;
15806;SDS011;8005;51.368;6.140;2023-01-26T00:05:24;165.68;;;53.40;;
15806;SDS011;8005;51.368;6.140;2023-01-26T00:06:56;170.93;;;52.55;;
15806;SDS011;8005;51.368;6.140;2023-01-26T00:08:28;161.80;;;51.10;;
15806;SDS011;8005;51.368;6.140;2023-01-26T00:10:00;159.35;;;51.13;;
15806;SDS011;8005;51.368;6.140;2023-01-26T00:11:35;167.10;;;53.40;;
15806;SDS011;8005;51.368;6.140;2023-01-26T00:13:08;178.55;;;55.70;;
15806;SDS011;8005;51.368;6.140;2023-01-26T00:14:41;164.13;;;53.20;;
15806;SDS011;8005;51.368;6.140;2023-01-26T00:16:22;175.98;;;54.05;;
15806;SDS011;8005;51.368;6.140;2023-01-26T00:17:54;166.50;;;52.13;;
15806;SDS011;8005;51.368;6.140;2023-01-26T00:19:26;168.87;;;55.40;;
15806;SDS011;8005;51.368;6.140;2023-01-26T00:20:59;156.20;;;53.83;;
15806;SDS011;8005;51.368;6.140;2023-01-26T00:22:31;163.65;;;55.03;;
15806;SDS011;8005;51.368;6.140;2023-01-26T00:24:03;180.53;;;56.37;;
15806;SDS011;8005;51.368;6.140;2023-01-26T00:25:36;176.23;;;53.90;;
15806;SDS011;8005;51.368;6.140;2023-01-26T00:27:10;167.07;;;53.38;;
15806;SDS011;8005;51.368;6.140;2023-01-26T00:28:42;169.23;;;51.97;;
15806;SDS011;8005;51.368;6.140;2023-01-26T00:30:14;170.20;;;50.97;;
15806;SDS011;8005;51.368;6.140;2023-01-26T00:31:47;168.20;;;51.83;;
15806;SDS011;8005;51.368;6.140;2023-01-26T00:33:19;165.75;;;52.47;;
15806;SDS011;8005;51.368;6.140;2023-01-26T00:34:51;143.90;;;44.03;;
15806;SDS011;8005;51.368;6.140;2023-01-26T00:36:23;171.70;;;51.75;;
15806;SDS011;8005;51.368;6.140;2023-01-26T00:37:55;178.70;;;56.85;;
15806;SDS011;8005;51.368;6.140;2023-01-26T00:39:27;137.48;;;44.53;;
15806;SDS011;8005;51.368;6.140;2023-01-26T00:40:59;158.55;;;47.83;;
15806;SDS011;8005;51.368;6.140;2023-01-26T00:42:31;165.87;;;53.13;;
15806;SDS011;8005;51.368;6.140;2023-01-26T00:44:03;165.23;;;52.50;;
15806;SDS011;8005;51.368;6.140;2023-01-26T00:45:35;168.27;;;51.60;;
15806;SDS011;8005;51.368;6.140;2023-01-26T00:48:41;169.20;;;47.75;;
15806;SDS011;8005;51.368;6.140;2023-01-26T00:50:13;165.93;;;50.83;;
15806;SDS011;8005;51.368;6.140;2023-01-26T00:51:46;169.65;;;50.40;;
15806;SDS011;8005;51.368;6.140;2023-01-26T00:53:25;154.73;;;48.22;;
15806;SDS011;8005;51.368;6.140;2023-01-26T00:54:57;156.75;;;49.78;;
15806;SDS011;8005;51.368;6.140;2023-01-26T00:56:30;165.35;;;49.55;;
15806;SDS011;8005;51.368;6.140;2023-01-26T00:58:11;145.52;;;46.90;;
15806;SDS011;8005;51.368;6.140;2023-01-26T00:59:43;156.63;;;50.47;;
15806;SDS011;8005;51.368;6.140;2023-01-26T01:01:15;153.33;;;47.90;;
15806;SDS011;8005;51.368;6.140;2023-01-26T01:02:47;152.05;;;47.65;;
15806;SDS011;8005;51.368;6.140;2023-01-26T01:04:21;155.00;;;47.60;;
15806;SDS011;8005;51.368;6.140;2023-01-26T01:05:53;172.60;;;54.10;;
15806;SDS011;8005;51.368;6.140;2023-01-26T01:07:25;154.35;;;49.67;;
15806;SDS011;8005;51.368;6.140;2023-01-26T01:08:58;152.15;;;47.15;;
15806;SDS011;8005;51.368;6.140;2023-01-26T01:10:31;152.57;;;49.05;;
15806;SDS011;8005;51.368;6.140;2023-01-26T01:12:03;148.23;;;44.45;;
15806;SDS011;8005;51.368;6.140;2023-01-26T01:13:36;152.40;;;46.22;;
15806;SDS011;8005;51.368;6.140;2023-01-26T01:15:09;154.52;;;50.28;;
15806;SDS011;8005;51.368;6.140;2023-01-26T01:16:42;154.43;;;47.17;;
15806;SDS011;8005;51.368;6.140;2023-01-26T01:18:15;156.30;;;47.55;;
15806;SDS011;8005;51.368;6.140;2023-01-26T01:19:49;161.57;;;49.08;;
15806;SDS011;8005;51.368;6.140;2023-01-26T01:21:25;163.00;;;49.97;;
15806;SDS011;8005;51.368;6.140;2023-01-26T01:22:57;156.93;;;47.72;;
15806;SDS011;8005;51.368;6.140;2023-01-26T01:24:30;156.13;;;50.47;;
15806;SDS011;8005;51.368;6.140;2023-01-26T01:26:05;153.63;;;50.83;;
15806;SDS011;8005;51.368;6.140;2023-01-26T01:27:37;173.48;;;51.38;;
15806;SDS011;8005;51.368;6.140;2023-01-26T01:29:11;167.05;;;53.30;;
15806;SDS011;8005;51.368;6.140;2023-01-26T01:30:43;159.13;;;51.25;;
15806;SDS011;8005;51.368;6.140;2023-01-26T01:32:16;154.43;;;54.10;;
15806;SDS011;8005;51.368;6.140;2023-01-26T01:33:50;172.95;;;53.10;;
15806;SDS011;8005;51.368;6.140;2023-01-26T01:35:25;171.23;;;54.33;;
15806;SDS011;8005;51.368;6.140;2023-01-26T01:36:57;161.35;;;53.03;;
15806;SDS011;8005;51.368;6.140;2023-01-26T01:38:30;169.75;;;53.85;;
15806;SDS011;8005;51.368;6.140;2023-01-26T01:40:02;171.82;;;53.65;;
15806;SDS011;8005;51.368;6.140;2023-01-26T01:41:36;165.88;;;52.03;;
15806;SDS011;8005;51.368;6.140;2023-01-26T01:43:10;174.95;;;58.55;;
15806;SDS011;8005;51.368;6.140;2023-01-26T01:44:44;159.25;;;51.97;;
15806;SDS011;8005;51.368;6.140;2023-01-26T01:46:27;166.13;;;54.13;;
15806;SDS011;8005;51.368;6.140;2023-01-26T01:48:02;165.43;;;52.03;;
15806;SDS011;8005;51.368;6.140;2023-01-26T01:49:37;154.18;;;52.03;;
15806;SDS011;8005;51.368;6.140;2023-01-26T01:51:15;149.77;;;49.65;;
15806;SDS011;8005;51.368;6.140;2023-01-26T01:52:58;164.07;;;51.45;;
15806;SDS011;8005;51.368;6.140;2023-01-26T01:54:37;166.00;;;50.43;;
15806;SDS011;8005;51.368;6.140;2023-01-26T01:56:14;169.80;;;53.47;;
15806;SDS011;8005;51.368;6.140;2023-01-26T01:57:52;167.43;;;54.90;;
15806;SDS011;8005;51.368;6.140;2023-01-26T01:59:26;163.20;;;54.08;;
15806;SDS011;8005;51.368;6.140;2023-01-26T02:00:58;129.90;;;41.08;;
15806;SDS011;8005;51.368;6.140;2023-01-26T02:02:30;132.98;;;43.83;;
15806;SDS011;8005;51.368;6.140;2023-01-26T02:04:03;169.57;;;54.13;;
15806;SDS011;8005;51.368;6.140;2023-01-26T02:07:23;173.73;;;55.72;;
15806;SDS011;8005;51.368;6.140;2023-01-26T02:08:55;191.95;;;57.38;;
15806;SDS011;8005;51.368;6.140;2023-01-26T02:10:29;173.23;;;55.95;;
15806;SDS011;8005;51.368;6.140;2023-01-26T02:13:34;168.93;;;56.08;;
15806;SDS011;8005;51.368;6.140;2023-01-26T02:16:39;181.90;;;57.05;;
15806;SDS011;8005;51.368;6.140;2023-01-26T02:19:59;179.75;;;55.17;;
15806;SDS011;8005;51.368;6.140;2023-01-26T02:22:09;167.10;;;54.05;;
15806;SDS011;8005;51.368;6.140;2023-01-26T02:26:06;175.07;;;51.70;;
15806;SDS011;8005;51.368;6.140;2023-01-26T02:29:17;173.10;;;54.17;;
15806;SDS011;8005;51.368;6.140;2023-01-26T02:30:49;184.57;;;56.33;;
15806;SDS011;8005;51.368;6.140;2023-01-26T02:32:21;166.77;;;52.55;;
15806;SDS011;8005;51.368;6.140;2023-01-26T02:33:53;142.50;;;45.15;;
15806;SDS011;8005;51.368;6.140;2023-01-26T02:35:25;178.45;;;55.33;;
15806;SDS011;8005;51.368;6.140;2023-01-26T02:36:58;189.68;;;55.83;;
15806;SDS011;8005;51.368;6.140;2023-01-26T02:38:36;171.77;;;51.08;;
15806;SDS011;8005;51.368;6.140;2023-01-26T02:40:20;177.05;;;55.40;;
15806;SDS011;8005;51.368;6.140;2023-01-26T02:42:01;173.20;;;56.97;;
15806;SDS011;8005;51.368;6.140;2023-01-26T02:43:52;180.60;;;55.35;;
15806;SDS011;8005;51.368;6.140;2023-01-26T02:45:24;176.02;;;56.10;;
15806;SDS011;8005;51.368;6.140;2023-01-26T02:46:57;179.88;;;54.35;;
15806;SDS011;8005;51.368;6.140;2023-01-26T02:48:29;185.40;;;56.65;;
15806;SDS011;8005;51.368;6.140;2023-01-26T02:50:20;174.52;;;52.00;;
15806;SDS011;8005;51.368;6.140;2023-01-26T02:51:52;188.67;;;56.53;;
15806;SDS011;8005;51.368;6.140;2023-01-26T02:53:24;190.93;;;56.45;;
15806;SDS011;8005;51.368;6.140;2023-01-26T02:54:57;178.93;;;52.88;;
15806;SDS011;8005;51.368;6.140;2023-01-26T02:57:01;163.55;;;51.90;;
15806;SDS011;8005;51.368;6.140;2023-01-26T02:58:36;185.40;;;55.78;;
15806;SDS011;8005;51.368;6.140;2023-01-26T03:00:12;174.02;;;53.42;;
15806;SDS011;8005;51.368;6.140;2023-01-26T03:01:47;171.35;;;53.40;;
15806;SDS011;8005;51.368;6.140;2023-01-26T03:03:22;169.27;;;53.20;;
15806;SDS011;8005;51.368;6.140;2023-01-26T03:04:55;180.10;;;54.35;;
15806;SDS011;8005;51.368;6.140;2023-01-26T03:06:28;168.30;;;53.25;;
15806;SDS011;8005;51.368;6.140;2023-01-26T03:08:00;166.88;;;51.97;;
15806;SDS011;8005;51.368;6.140;2023-01-26T03:09:38;170.43;;;51.15;;
15806;SDS011;8005;51.368;6.140;2023-01-26T03:11:12;155.82;;;48.80;;
15806;SDS011;8005;51.368;6.140;2023-01-26T03:12:44;169.52;;;49.47;;
15806;SDS011;8005;51.368;6.140;2023-01-26T03:14:16;166.88;;;52.70;;
15806;SDS011;8005;51.368;6.140;2023-01-26T03:15:48;161.82;;;50.38;;
15806;SDS011;8005;51.368;6.140;2023-01-26T03:17:26;158.65;;;47.63;;
15806;SDS011;8005;51.368;6.140;2023-01-26T03:18:59;166.52;;;47.05;;
15806;SDS011;8005;51.368;6.140;2023-01-26T03:20:34;157.88;;;49.42;;
15806;SDS011;8005;51.368;6.140;2023-01-26T03:22:24;162.70;;;47.45;;
15806;SDS011;8005;51.368;6.140;2023-01-26T03:24:15;145.63;;;44.40;;
15806;SDS011;8005;51.368;6.140;2023-01-26T03:26:09;161.18;;;45.92;;
15806;SDS011;8005;51.368;6.140;2023-01-26T03:28:00;151.75;;;45.63;;
15806;SDS011;8005;51.368;6.140;2023-01-26T03:29:32;168.55;;;47.35;;
15806;SDS011;8005;51.368;6.140;2023-01-26T03:32:37;141.50;;;42.22;;
15806;SDS011;8005;51.368;6.140;2023-01-26T03:34:12;146.63;;;45.33;;
15806;SDS011;8005;51.368;6.140;2023-01-26T03:35:45;148.98;;;46.08;;
15806;SDS011;8005;51.368;6.140;2023-01-26T03:37:17;159.13;;;47.88;;
15806;SDS011;8005;51.368;6.140;2023-01-26T03:39:03;150.70;;;46.38;;
15806;SDS011;8005;51.368;6.140;2023-01-26T03:40:36;152.40;;;47.30;;
15806;SDS011;8005;51.368;6.140;2023-01-26T03:42:27;147.55;;;44.58;;
15806;SDS011;8005;51.368;6.140;2023-01-26T03:44:18;156.65;;;44.78;;
15806;SDS011;8005;51.368;6.140;2023-01-26T03:46:08;152.18;;;45.40;;
15806;SDS011;8005;51.368;6.140;2023-01-26T03:48:02;149.02;;;41.90;;
15806;SDS011;8005;51.368;6.140;2023-01-26T03:49:54;151.60;;;46.43;;
15806;SDS011;8005;51.368;6.140;2023-01-26T03:51:50;136.35;;;42.20;;
15806;SDS011;8005;51.368;6.140;2023-01-26T03:53:48;151.65;;;42.53;;
15806;SDS011;8005;51.368;6.140;2023-01-26T03:56:01;146.43;;;41.25;;
15806;SDS011;8005;51.368;6.140;2023-01-26T03:58:18;142.23;;;39.30;;
15806;SDS011;8005;51.368;6.140;2023-01-26T04:00:32;132.40;;;39.72;;
15806;SDS011;8005;51.368;6.140;2023-01-26T04:02:43;139.95;;;41.28;;
15806;SDS011;8005;51.368;6.140;2023-01-26T04:04:50;126.07;;;39.95;;
15806;SDS011;8005;51.368;6.140;2023-01-26T04:06:45;133.52;;;40.20;;
15806;SDS011;8005;51.368;6.140;2023-01-26T04:08:40;133.73;;;39.40;;
15806;SDS011;8005;51.368;6.140;2023-01-26T04:11:45;124.10;;;35.83;;
15806;SDS011;8005;51.368;6.140;2023-01-26T04:13:19;142.45;;;41.90;;
15806;SDS011;8005;51.368;6.140;2023-01-26T04:15:12;151.65;;;41.58;;
15806;SDS011;8005;51.368;6.140;2023-01-26T04:17:04;140.55;;;40.47;;
15806;SDS011;8005;51.368;6.140;2023-01-26T04:18:55;140.32;;;39.72;;
15806;SDS011;8005;51.368;6.140;2023-01-26T04:20:45;146.98;;;41.72;;
15806;SDS011;8005;51.368;6.140;2023-01-26T04:22:38;137.30;;;40.17;;
15806;SDS011;8005;51.368;6.140;2023-01-26T04:24:14;143.15;;;42.33;;
15806;SDS011;8005;51.368;6.140;2023-01-26T04:25:48;134.80;;;38.90;;
15806;SDS011;8005;51.368;6.140;2023-01-26T04:28:54;123.82;;;36.95;;
15806;SDS011;8005;51.368;6.140;2023-01-26T04:30:25;139.13;;;39.67;;
15806;SDS011;8005;51.368;6.140;2023-01-26T04:31:58;127.82;;;40.75;;
15806;SDS011;8005;51.368;6.140;2023-01-26T04:35:03;130.55;;;37.17;;
15806;SDS011;8005;51.368;6.140;2023-01-26T04:36:38;118.35;;;37.95;;
15806;SDS011;8005;51.368;6.140;2023-01-26T04:38:10;131.07;;;38.58;;
15806;SDS011;8005;51.368;6.140;2023-01-26T04:39:44;139.75;;;38.88;;
15806;SDS011;8005;51.368;6.140;2023-01-26T04:41:16;124.95;;;38.72;;
15806;SDS011;8005;51.368;6.140;2023-01-26T04:42:53;129.70;;;38.10;;
15806;SDS011;8005;51.368;6.140;2023-01-26T04:44:25;144.82;;;41.03;;
15806;SDS011;8005;51.368;6.140;2023-01-26T04:45:59;106.38;;;32.83;;
15806;SDS011;8005;51.368;6.140;2023-01-26T04:47:33;138.52;;;41.85;;
15806;SDS011;8005;51.368;6.140;2023-01-26T04:49:06;142.52;;;44.78;;
15806;SDS011;8005;51.368;6.140;2023-01-26T04:50:39;144.70;;;41.10;;
15806;SDS011;8005;51.368;6.140;2023-01-26T04:52:11;144.07;;;43.40;;
15806;SDS011;8005;51.368;6.140;2023-01-26T04:53:43;102.20;;;33.08;;
15806;SDS011;8005;51.368;6.140;2023-01-26T04:55:15;152.40;;;42.53;;
15806;SDS011;8005;51.368;6.140;2023-01-26T04:56:47;142.45;;;40.83;;
15806;SDS011;8005;51.368;6.140;2023-01-26T04:58:20;143.35;;;44.28;;
15806;SDS011;8005;51.368;6.140;2023-01-26T04:59:52;125.47;;;42.85;;
15806;SDS011;8005;51.368;6.140;2023-01-26T05:01:24;140.52;;;42.22;;
15806;SDS011;8005;51.368;6.140;2023-01-26T05:02:56;137.00;;;39.83;;
15806;SDS011;8005;51.368;6.140;2023-01-26T05:04:28;153.23;;;42.13;;
15806;SDS011;8005;51.368;6.140;2023-01-26T05:06:02;153.05;;;44.47;;
15806;SDS011;8005;51.368;6.140;2023-01-26T05:07:34;135.23;;;43.25;;
15806;SDS011;8005;51.368;6.140;2023-01-26T05:09:06;121.10;;;37.45;;
15806;SDS011;8005;51.368;6.140;2023-01-26T05:10:40;141.43;;;39.45;;
15806;SDS011;8005;51.368;6.140;2023-01-26T05:12:31;124.65;;;37.38;;
15806;SDS011;8005;51.368;6.140;2023-01-26T05:14:26;129.85;;;38.70;;
15806;SDS011;8005;51.368;6.140;2023-01-26T05:16:07;138.00;;;39.58;;
15806;SDS011;8005;51.368;6.140;2023-01-26T05:17:51;128.73;;;38.08;;
15806;SDS011;8005;51.368;6.140;2023-01-26T05:21:56;127.40;;;38.22;;
15806;SDS011;8005;51.368;6.140;2023-01-26T05:23:28;130.38;;;37.47;;
15806;SDS011;8005;51.368;6.140;2023-01-26T05:25:39;135.57;;;40.58;;
15806;SDS011;8005;51.368;6.140;2023-01-26T05:27:16;132.40;;;42.17;;
15806;SDS011;8005;51.368;6.140;2023-01-26T05:29:02;135.60;;;40.47;;
15806;SDS011;8005;51.368;6.140;2023-01-26T05:30:35;123.82;;;39.58;;
15806;SDS011;8005;51.368;6.140;2023-01-26T05:32:08;119.45;;;37.83;;
15806;SDS011;8005;51.368;6.140;2023-01-26T05:33:45;125.55;;;39.17;;
15806;SDS011;8005;51.368;6.140;2023-01-26T05:35:23;119.40;;;38.85;;
15806;SDS011;8005;51.368;6.140;2023-01-26T05:36:55;124.07;;;38.80;;
15806;SDS011;8005;51.368;6.140;2023-01-26T05:38:27;121.25;;;37.70;;
15806;SDS011;8005;51.368;6.140;2023-01-26T05:41:33;119.78;;;36.00;;
15806;SDS011;8005;51.368;6.140;2023-01-26T05:43:29;119.50;;;37.72;;
15806;SDS011;8005;51.368;6.140;2023-01-26T05:45:20;122.72;;;36.25;;
15806;SDS011;8005;51.368;6.140;2023-01-26T05:46:56;119.07;;;37.92;;
15806;SDS011;8005;51.368;6.140;2023-01-26T05:48:28;128.03;;;39.50;;
15806;SDS011;8005;51.368;6.140;2023-01-26T05:50:00;123.90;;;38.20;;
15806;SDS011;8005;51.368;6.140;2023-01-26T05:51:35;114.00;;;36.38;;
15806;SDS011;8005;51.368;6.140;2023-01-26T05:53:10;116.30;;;36.53;;
15806;SDS011;8005;51.368;6.140;2023-01-26T05:54:43;95.90;;;35.35;;
15806;SDS011;8005;51.368;6.140;2023-01-26T05:56:15;113.60;;;36.88;;
15806;SDS011;8005;51.368;6.140;2023-01-26T05:57:52;113.45;;;35.80;;
15806;SDS011;8005;51.368;6.140;2023-01-26T05:59:24;111.47;;;34.78;;
15806;SDS011;8005;51.368;6.140;2023-01-26T06:00:56;122.38;;;38.53;;
15806;SDS011;8005;51.368;6.140;2023-01-26T06:02:33;112.45;;;35.50;;
15806;SDS011;8005;51.368;6.140;2023-01-26T06:04:06;102.72;;;33.28;;
15806;SDS011;8005;51.368;6.140;2023-01-26T06:05:50;101.80;;;34.33;;
15806;SDS011;8005;51.368;6.140;2023-01-26T06:07:31;109.03;;;33.90;;
15806;SDS011;8005;51.368;6.140;2023-01-26T06:09:17;110.60;;;34.05;;
15806;SDS011;8005;51.368;6.140;2023-01-26T06:11:24;117.40;;;35.47;;
15806;SDS011;8005;51.368;6.140;2023-01-26T06:13:08;102.18;;;32.92;;
15806;SDS011;8005;51.368;6.140;2023-01-26T06:14:45;102.38;;;34.85;;
15806;SDS011;8005;51.368;6.140;2023-01-26T06:16:20;103.47;;;34.28;;
15806;SDS011;8005;51.368;6.140;2023-01-26T06:18:04;100.30;;;34.10;;
15806;SDS011;8005;51.368;6.140;2023-01-26T06:19:36;111.97;;;37.38;;
15806;SDS011;8005;51.368;6.140;2023-01-26T06:21:08;114.43;;;34.80;;
15806;SDS011;8005;51.368;6.140;2023-01-26T06:22:40;104.43;;;35.45;;
15806;SDS011;8005;51.368;6.140;2023-01-26T06:25:45;104.70;;;33.00;;
15806;SDS011;8005;51.368;6.140;2023-01-26T06:27:17;108.30;;;33.03;;
15806;SDS011;8005;51.368;6.140;2023-01-26T06:28:52;104.00;;;32.28;;
15806;SDS011;8005;51.368;6.140;2023-01-26T06:30:26;114.20;;;37.05;;
15806;SDS011;8005;51.368;6.140;2023-01-26T06:32:03;105.90;;;36.50;;
15806;SDS011;8005;51.368;6.140;2023-01-26T06:33:35;92.93;;;28.48;;
15806;SDS011;8005;51.368;6.140;2023-01-26T06:35:09;112.88;;;35.00;;
15806;SDS011;8005;51.368;6.140;2023-01-26T06:36:43;118.32;;;37.95;;
15806;SDS011;8005;51.368;6.140;2023-01-26T06:38:26;110.07;;;36.38;;
15806;SDS011;8005;51.368;6.140;2023-01-26T06:40:00;101.97;;;36.08;;
15806;SDS011;8005;51.368;6.140;2023-01-26T06:41:35;105.22;;;34.95;;
15806;SDS011;8005;51.368;6.140;2023-01-26T06:43:09;106.15;;;34.75;;
15806;SDS011;8005;51.368;6.140;2023-01-26T06:44:44;110.55;;;34.67;;
15806;SDS011;8005;51.368;6.140;2023-01-26T06:46:16;111.22;;;37.42;;
15806;SDS011;8005;51.368;6.140;2023-01-26T06:47:49;108.43;;;35.83;;
15806;SDS011;8005;51.368;6.140;2023-01-26T06:49:24;103.15;;;34.92;;
15806;SDS011;8005;51.368;6.140;2023-01-26T06:51:03;116.00;;;37.72;;
15806;SDS011;8005;51.368;6.140;2023-01-26T06:52:55;105.43;;;35.78;;
15806;SDS011;8005;51.368;6.140;2023-01-26T06:54:53;103.63;;;33.45;;
15806;SDS011;8005;51.368;6.140;2023-01-26T06:56:49;107.50;;;31.67;;
15806;SDS011;8005;51.368;6.140;2023-01-26T06:58:42;101.25;;;30.83;;
15806;SDS011;8005;51.368;6.140;2023-01-26T07:00:34;107.82;;;33.67;;
15806;SDS011;8005;51.368;6.140;2023-01-26T07:02:17;102.00;;;34.17;;
15806;SDS011;8005;51.368;6.140;2023-01-26T07:03:52;106.40;;;34.17;;
15806;SDS011;8005;51.368;6.140;2023-01-26T07:05:25;103.63;;;32.80;;
15806;SDS011;8005;51.368;6.140;2023-01-26T07:07:00;109.97;;;35.10;;
15806;SDS011;8005;51.368;6.140;2023-01-26T07:10:05;101.28;;;31.25;;
15806;SDS011;8005;51.368;6.140;2023-01-26T07:11:39;110.20;;;34.45;;
15806;SDS011;8005;51.368;6.140;2023-01-26T07:13:16;99.70;;;33.55;;
15806;SDS011;8005;51.368;6.140;2023-01-26T07:14:48;102.68;;;33.70;;
15806;SDS011;8005;51.368;6.140;2023-01-26T07:16:22;108.95;;;35.33;;
15806;SDS011;8005;51.368;6.140;2023-01-26T07:17:55;103.80;;;32.33;;
15806;SDS011;8005;51.368;6.140;2023-01-26T07:19:28;103.03;;;33.40;;
15806;SDS011;8005;51.368;6.140;2023-01-26T07:21:04;111.28;;;33.22;;
15806;SDS011;8005;51.368;6.140;2023-01-26T07:22:41;106.13;;;33.03;;
15806;SDS011;8005;51.368;6.140;2023-01-26T07:24:13;96.97;;;31.13;;
15806;SDS011;8005;51.368;6.140;2023-01-26T07:26:01;102.47;;;34.17;;
15806;SDS011;8005;51.368;6.140;2023-01-26T07:27:34;98.85;;;32.55;;
15806;SDS011;8005;51.368;6.140;2023-01-26T07:29:12;106.47;;;31.67;;
15806;SDS011;8005;51.368;6.140;2023-01-26T07:30:47;113.88;;;34.65;;
15806;SDS011;8005;51.368;6.140;2023-01-26T07:32:33;108.10;;;32.47;;
15806;SDS011;8005;51.368;6.140;2023-01-26T07:34:12;102.38;;;33.05;;
15806;SDS011;8005;51.368;6.140;2023-01-26T07:35:44;101.63;;;31.73;;
15806;SDS011;8005;51.368;6.140;2023-01-26T07:37:17;111.25;;;33.05;;
15806;SDS011;8005;51.368;6.140;2023-01-26T07:38:49;72.03;;;24.55;;
15806;SDS011;8005;51.368;6.140;2023-01-26T07:40:22;99.65;;;31.27;;
15806;SDS011;8005;51.368;6.140;2023-01-26T07:41:57;103.43;;;32.45;;
15806;SDS011;8005;51.368;6.140;2023-01-26T07:43:56;94.50;;;30.23;;
15806;SDS011;8005;51.368;6.140;2023-01-26T07:45:32;109.35;;;34.30;;
15806;SDS011;8005;51.368;6.140;2023-01-26T07:47:08;92.63;;;29.40;;
15806;SDS011;8005;51.368;6.140;2023-01-26T07:48:44;100.85;;;31.40;;
15806;SDS011;8005;51.368;6.140;2023-01-26T07:50:26;91.13;;;31.38;;
15806;SDS011;8005;51.368;6.140;2023-01-26T07:52:08;87.40;;;31.00;;
15806;SDS011;8005;51.368;6.140;2023-01-26T07:53:41;96.82;;;29.92;;
15806;SDS011;8005;51.368;6.140;2023-01-26T07:55:24;100.70;;;30.17;;
15806;SDS011;8005;51.368;6.140;2023-01-26T07:57:00;102.63;;;32.65;;
15806;SDS011;8005;51.368;6.140;2023-01-26T07:58:40;96.53;;;32.28;;
15806;SDS011;8005;51.368;6.140;2023-01-26T08:00:18;95.70;;;30.70;;
15806;SDS011;8005;51.368;6.140;2023-01-26T08:01:56;99.32;;;32.92;;
15806;SDS011;8005;51.368;6.140;2023-01-26T08:03:39;93.53;;;31.20;;
15806;SDS011;8005;51.368;6.140;2023-01-26T08:05:12;106.28;;;33.10;;
15806;SDS011;8005;51.368;6.140;2023-01-26T08:06:45;107.40;;;34.15;;
15806;SDS011;8005;51.368;6.140;2023-01-26T08:08:20;91.00;;;29.00;;
15806;SDS011;8005;51.368;6.140;2023-01-26T08:09:59;92.45;;;31.38;;
15806;SDS011;8005;51.368;6.140;2023-01-26T08:11:35;95.50;;;31.58;;
15806;SDS011;8005;51.368;6.140;2023-01-26T08:13:13;95.90;;;30.67;;
15806;SDS011;8005;51.368;6.140;2023-01-26T08:14:54;100.80;;;30.60;;
15806;SDS011;8005;51.368;6.140;2023-01-26T08:16:29;99.93;;;31.27;;
15806;SDS011;8005;51.368;6.140;2023-01-26T08:18:07;91.93;;;31.17;;
15806;SDS011;8005;51.368;6.140;2023-01-26T08:19:46;92.20;;;29.33;;
15806;SDS011;8005;51.368;6.140;2023-01-26T08:21:27;98.43;;;30.33;;
15806;SDS011;8005;51.368;6.140;2023-01-26T08:23:26;96.68;;;27.90;;
15806;SDS011;8005;51.368;6.140;2023-01-26T08:25:17;83.43;;;30.30;;
15806;SDS011;8005;51.368;6.140;2023-01-26T08:27:10;83.82;;;29.17;;
15806;SDS011;8005;51.368;6.140;2023-01-26T08:28:59;82.03;;;27.65;;
15806;SDS011;8005;51.368;6.140;2023-01-26T08:30:40;90.75;;;28.63;;
15806;SDS011;8005;51.368;6.140;2023-01-26T08:32:29;88.20;;;29.23;;
15806;SDS011;8005;51.368;6.140;2023-01-26T08:34:10;83.50;;;27.15;;
15806;SDS011;8005;51.368;6.140;2023-01-26T08:36:04;85.82;;;28.20;;
15806;SDS011;8005;51.368;6.140;2023-01-26T08:37:44;89.88;;;27.95;;
15806;SDS011;8005;51.368;6.140;2023-01-26T08:39:37;83.57;;;27.40;;
15806;SDS011;8005;51.368;6.140;2023-01-26T08:43:09;83.07;;;26.30;;
15806;SDS011;8005;51.368;6.140;2023-01-26T08:44:58;87.30;;;27.88;;
15806;SDS011;8005;51.368;6.140;2023-01-26T08:49:14;79.75;;;27.00;;
15806;SDS011;8005;51.368;6.140;2023-01-26T08:51:20;77.53;;;26.10;;
15806;SDS011;8005;51.368;6.140;2023-01-26T08:54:06;72.38;;;23.05;;
15806;SDS011;8005;51.368;6.140;2023-01-26T08:56:57;67.95;;;23.67;;
15806;SDS011;8005;51.368;6.140;2023-01-26T09:01:48;75.65;;;23.15;;
15806;SDS011;8005;51.368;6.140;2023-01-26T09:04:07;70.28;;;23.35;;
15806;SDS011;8005;51.368;6.140;2023-01-26T09:09:13;66.60;;;21.77;;
15806;SDS011;8005;51.368;6.140;2023-01-26T09:11:07;67.00;;;23.25;;
15806;SDS011;8005;51.368;6.140;2023-01-26T09:13:03;66.67;;;22.33;;
15806;SDS011;8005;51.368;6.140;2023-01-26T09:14:49;66.55;;;23.02;;
15806;SDS011;8005;51.368;6.140;2023-01-26T09:16:43;68.57;;;23.33;;
15806;SDS011;8005;51.368;6.140;2023-01-26T09:21:06;69.38;;;22.45;;
15806;SDS011;8005;51.368;6.140;2023-01-26T09:22:51;61.55;;;20.25;;
15806;SDS011;8005;51.368;6.140;2023-01-26T09:24:38;62.55;;;21.92;;
15806;SDS011;8005;51.368;6.140;2023-01-26T09:26:23;65.07;;;22.67;;
15806;SDS011;8005;51.368;6.140;2023-01-26T09:28:12;61.47;;;21.00;;
15806;SDS011;8005;51.368;6.140;2023-01-26T09:30:01;67.57;;;22.83;;
15806;SDS011;8005;51.368;6.140;2023-01-26T09:31:41;60.08;;;21.65;;
15806;SDS011;8005;51.368;6.140;2023-01-26T09:33:20;65.80;;;23.35;;
15806;SDS011;8005;51.368;6.140;2023-01-26T09:35:04;62.13;;;22.88;;
15806;SDS011;8005;51.368;6.140;2023-01-26T09:36:58;54.38;;;20.60;;
15806;SDS011;8005;51.368;6.140;2023-01-26T09:38:59;57.65;;;19.85;;
15806;SDS011;8005;51.368;6.140;2023-01-26T09:43:45;49.15;;;18.75;;
15806;SDS011;8005;51.368;6.140;2023-01-26T09:45:19;49.28;;;18.13;;
15806;SDS011;8005;51.368;6.140;2023-01-26T09:47:04;54.40;;;19.88;;
15806;SDS011;8005;51.368;6.140;2023-01-26T09:49:14;55.20;;;19.38;;
15806;SDS011;8005;51.368;6.140;2023-01-26T09:51:17;49.35;;;19.08;;
15806;SDS011;8005;51.368;6.140;2023-01-26T09:54:42;45.67;;;15.02;;
15806;SDS011;8005;51.368;6.140;2023-01-26T09:56:21;54.35;;;20.23;;
15806;SDS011;8005;51.368;6.140;2023-01-26T09:58:38;49.78;;;18.60;;
15806;SDS011;8005;51.368;6.140;2023-01-26T10:00:31;49.35;;;17.13;;
15806;SDS011;8005;51.368;6.140;2023-01-26T10:02:52;47.72;;;18.17;;
15806;SDS011;8005;51.368;6.140;2023-01-26T10:04:36;48.92;;;18.30;;
15806;SDS011;8005;51.368;6.140;2023-01-26T10:06:14;53.30;;;19.30;;
15806;SDS011;8005;51.368;6.140;2023-01-26T10:08:19;42.63;;;16.58;;
15806;SDS011;8005;51.368;6.140;2023-01-26T10:09:59;43.38;;;17.42;;
15806;SDS011;8005;51.368;6.140;2023-01-26T10:11:37;51.80;;;18.85;;
15806;SDS011;8005;51.368;6.140;2023-01-26T10:13:15;50.28;;;18.63;;
15806;SDS011;8005;51.368;6.140;2023-01-26T10:14:50;47.22;;;17.30;;
15806;SDS011;8005;51.368;6.140;2023-01-26T10:16:31;53.55;;;19.25;;
15806;SDS011;8005;51.368;6.140;2023-01-26T10:18:20;50.15;;;18.55;;
15806;SDS011;8005;51.368;6.140;2023-01-26T10:20:05;50.38;;;17.48;;
15806;SDS011;8005;51.368;6.140;2023-01-26T10:21:43;50.45;;;17.42;;
15806;SDS011;8005;51.368;6.140;2023-01-26T10:23:20;55.42;;;19.13;;
15806;SDS011;8005;51.368;6.140;2023-01-26T10:29:43;46.95;;;16.83;;
15806;SDS011;8005;51.368;6.140;2023-01-26T10:31:18;47.28;;;17.15;;
15806;SDS011;8005;51.368;6.140;2023-01-26T10:33:08;42.83;;;15.48;;